CheckWX is a tool to help pilots better visualize weather data.  It is not intended as a substitute for an official pre-flight weather briefing.

09:06:09 UTC

KMUT METAR
Muscatine Municipal Airport
Muscatine, Iowa, USA
Current

11 mins ago

KMUT 120855Z AUTO 13006KT 10SM CLR M05/M07 A3030 RMK AO2
Observed
Dec-12 @ 08:55 UTC
Wind
  • 130° at 6 KTS
Visibility
10 SM
Flight Rules
VFR
Cloud Levels
  • Clear skies
Temperature
-5°C / 23°F
Dewpoint
-7°C / 19°F
Humidity
86%
Altimeter
30.3" Hg
Pressure
1026.12 hPa
Previous

31 mins ago

KMUT 120835Z AUTO 12007KT 10SM CLR M05/M07 A3031 RMK AO2
Observed
Dec-12 @ 08:35 UTC
Wind
  • 120° at 7 KTS
Visibility
10 SM
Flight Rules
VFR
Cloud Levels
  • Clear skies
Temperature
-5°C / 23°F
Dewpoint
-7°C / 19°F
Humidity
86%
Altimeter
30.31" Hg
Pressure
1026.42 hPa
Previous

51 mins ago

KMUT 120815Z AUTO 12006KT 10SM CLR M05/M07 A3032 RMK AO2
Observed
Dec-12 @ 08:15 UTC
Wind
  • 120° at 6 KTS
Visibility
10 SM
Flight Rules
VFR
Cloud Levels
  • Clear skies
Temperature
-5°C / 23°F
Dewpoint
-7°C / 19°F
Humidity
86%
Altimeter
30.32" Hg
Pressure
1026.72 hPa